sensor_id;sensor_type;location;lat;lon;timestamp;pressure;altitude;pressure_sealevel;temperature;humidity
61384;BME280;63511;49.346;8.798;2023-11-19T00:00:25;100131.59;;;11.56;100.00
61384;BME280;63511;49.346;8.798;2023-11-19T00:02:52;100146.19;;;11.88;100.00
61384;BME280;63511;49.346;8.798;2023-11-19T00:05:18;100138.59;;;11.88;99.53
61384;BME280;63511;49.346;8.798;2023-11-19T00:07:45;100134.75;;;11.95;99.80
61384;BME280;63511;49.346;8.798;2023-11-19T00:10:13;100115.31;;;11.66;100.00
61384;BME280;63511;49.346;8.798;2023-11-19T00:12:41;100131.94;;;11.75;100.00
61384;BME280;63511;49.346;8.798;2023-11-19T00:15:09;100109.28;;;11.64;100.00
61384;BME280;63511;49.346;8.798;2023-11-19T00:17:36;100114.91;;;11.73;100.00
61384;BME280;63511;49.346;8.798;2023-11-19T00:20:03;100123.59;;;11.63;100.00
61384;BME280;63511;49.346;8.798;2023-11-19T00:22:31;100133.09;;;11.95;100.00
61384;BME280;63511;49.346;8.798;2023-11-19T00:24:57;100139.84;;;12.09;99.96
61384;BME280;63511;49.346;8.798;2023-11-19T00:27:25;100138.19;;;12.24;98.18
61384;BME280;63511;49.346;8.798;2023-11-19T00:29:52;100126.56;;;12.13;97.99
61384;BME280;63511;49.346;8.798;2023-11-19T00:32:18;100115.41;;;12.10;98.70
61384;BME280;63511;49.346;8.798;2023-11-19T00:34:45;100128.84;;;12.23;99.43
61384;BME280;63511;49.346;8.798;2023-11-19T00:37:12;100131.19;;;12.35;98.04
61384;BME280;63511;49.346;8.798;2023-11-19T00:39:40;100100.22;;;12.10;99.80
61384;BME280;63511;49.346;8.798;2023-11-19T00:42:06;100094.28;;;12.09;99.72
61384;BME280;63511;49.346;8.798;2023-11-19T00:44:34;100095.50;;;12.01;100.00
61384;BME280;63511;49.346;8.798;2023-11-19T00:47:00;100101.78;;;12.08;100.00
61384;BME280;63511;49.346;8.798;2023-11-19T00:49:27;100109.19;;;12.34;97.80
61384;BME280;63511;49.346;8.798;2023-11-19T00:51:53;100079.97;;;12.10;99.59
61384;BME280;63511;49.346;8.798;2023-11-19T00:54:20;100060.34;;;11.91;100.00
61384;BME280;63511;49.346;8.798;2023-11-19T00:56:46;100060.63;;;11.68;100.00
61384;BME280;63511;49.346;8.798;2023-11-19T00:59:12;100064.13;;;11.70;100.00
61384;BME280;63511;49.346;8.798;2023-11-19T01:01:40;100082.34;;;11.64;100.00
61384;BME280;63511;49.346;8.798;2023-11-19T01:04:07;100095.91;;;11.79;100.00
61384;BME280;63511;49.346;8.798;2023-11-19T01:06:33;100106.41;;;12.00;100.00
61384;BME280;63511;49.346;8.798;2023-11-19T01:09:00;100093.22;;;12.06;100.00
61384;BME280;63511;49.346;8.798;2023-11-19T01:11:27;100076.50;;;11.65;100.00
61384;BME280;63511;49.346;8.798;2023-11-19T01:13:53;100063.13;;;11.38;100.00
61384;BME280;63511;49.346;8.798;2023-11-19T01:16:20;100094.25;;;11.80;100.00
61384;BME280;63511;49.346;8.798;2023-11-19T01:18:48;100100.09;;;11.93;100.00
61384;BME280;63511;49.346;8.798;2023-11-19T01:21:15;100092.97;;;12.16;99.20
61384;BME280;63511;49.346;8.798;2023-11-19T01:23:41;100090.53;;;12.17;98.43
61384;BME280;63511;49.346;8.798;2023-11-19T01:26:09;100080.47;;;12.19;98.35
61384;BME280;63511;49.346;8.798;2023-11-19T01:28:37;100095.03;;;12.23;98.37
61384;BME280;63511;49.346;8.798;2023-11-19T01:31:04;100103.44;;;12.22;98.19
61384;BME280;63511;49.346;8.798;2023-11-19T01:33:31;100089.56;;;12.01;100.00
61384;BME280;63511;49.346;8.798;2023-11-19T01:35:59;100093.75;;;12.15;100.00
61384;BME280;63511;49.346;8.798;2023-11-19T01:38:25;100078.38;;;11.97;100.00
61384;BME280;63511;49.346;8.798;2023-11-19T01:40:55;100088.69;;;12.00;100.00
61384;BME280;63511;49.346;8.798;2023-11-19T01:43:31;100101.78;;;12.08;100.00
61384;BME280;63511;49.346;8.798;2023-11-19T01:45:58;100091.75;;;12.09;100.00
61384;BME280;63511;49.346;8.798;2023-11-19T01:48:24;100075.94;;;11.99;100.00
61384;BME280;63511;49.346;8.798;2023-11-19T01:50:51;100079.09;;;11.80;100.00
61384;BME280;63511;49.346;8.798;2023-11-19T01:53:19;100083.28;;;11.94;100.00
61384;BME280;63511;49.346;8.798;2023-11-19T01:55:46;100094.88;;;12.05;100.00
61384;BME280;63511;49.346;8.798;2023-11-19T01:58:13;100096.03;;;12.10;100.00
61384;BME280;63511;49.346;8.798;2023-11-19T02:00:40;100075.84;;;11.97;100.00
61384;BME280;63511;49.346;8.798;2023-11-19T02:03:06;100082.03;;;11.87;100.00
61384;BME280;63511;49.346;8.798;2023-11-19T02:05:33;100085.97;;;11.97;100.00
61384;BME280;63511;49.346;8.798;2023-11-19T02:08:00;100080.22;;;12.14;100.00
61384;BME280;63511;49.346;8.798;2023-11-19T02:10:27;100059.00;;;11.83;100.00
61384;BME280;63511;49.346;8.798;2023-11-19T02:12:54;100056.16;;;11.91;100.00
61384;BME280;63511;49.346;8.798;2023-11-19T02:15:21;100065.41;;;11.91;100.00
61384;BME280;63511;49.346;8.798;2023-11-19T02:17:49;100040.63;;;11.85;100.00
61384;BME280;63511;49.346;8.798;2023-11-19T02:20:16;100021.19;;;11.71;100.00
61384;BME280;63511;49.346;8.798;2023-11-19T02:22:44;100044.03;;;11.86;100.00
61384;BME280;63511;49.346;8.798;2023-11-19T02:25:12;100044.28;;;11.90;100.00
61384;BME280;63511;49.346;8.798;2023-11-19T02:27:52;100060.59;;;11.96;100.00
61384;BME280;63511;49.346;8.798;2023-11-19T02:30:21;100042.44;;;11.88;100.00
61384;BME280;63511;49.346;8.798;2023-11-19T02:32:51;100048.22;;;11.85;100.00
61384;BME280;63511;49.346;8.798;2023-11-19T02:35:17;100048.72;;;11.95;100.00
61384;BME280;63511;49.346;8.798;2023-11-19T02:37:44;100031.97;;;11.97;100.00
61384;BME280;63511;49.346;8.798;2023-11-19T02:40:10;100018.53;;;11.98;100.00
61384;BME280;63511;49.346;8.798;2023-11-19T02:42:38;100017.66;;;12.12;100.00
61384;BME280;63511;49.346;8.798;2023-11-19T02:45:07;100019.47;;;12.14;100.00
61384;BME280;63511;49.346;8.798;2023-11-19T02:47:35;100008.91;;;12.21;100.00
61384;BME280;63511;49.346;8.798;2023-11-19T02:50:02;100012.75;;;12.15;100.00
61384;BME280;63511;49.346;8.798;2023-11-19T02:52:28;100019.19;;;12.24;100.00
61384;BME280;63511;49.346;8.798;2023-11-19T02:54:55;100012.47;;;12.25;100.00
61384;BME280;63511;49.346;8.798;2023-11-19T02:57:22;100010.28;;;12.31;100.00
61384;BME280;63511;49.346;8.798;2023-11-19T02:59:50;100012.47;;;12.56;100.00
61384;BME280;63511;49.346;8.798;2023-11-19T03:02:17;99997.28;;;12.25;100.00
61384;BME280;63511;49.346;8.798;2023-11-19T03:04:44;100014.91;;;12.38;100.00
61384;BME280;63511;49.346;8.798;2023-11-19T03:07:10;100016.72;;;12.41;100.00
61384;BME280;63511;49.346;8.798;2023-11-19T03:09:38;100002.78;;;12.32;100.00
61384;BME280;63511;49.346;8.798;2023-11-19T03:12:05;99998.88;;;12.39;100.00
61384;BME280;63511;49.346;8.798;2023-11-19T03:14:33;99980.69;;;12.30;100.00
61384;BME280;63511;49.346;8.798;2023-11-19T03:17:00;100008.72;;;12.49;100.00
61384;BME280;63511;49.346;8.798;2023-11-19T03:19:28;99984.22;;;12.48;100.00
61384;BME280;63511;49.346;8.798;2023-11-19T03:21:54;99987.78;;;12.52;100.00
61384;BME280;63511;49.346;8.798;2023-11-19T03:24:21;99975.66;;;12.46;100.00
61384;BME280;63511;49.346;8.798;2023-11-19T03:26:48;99978.81;;;12.42;100.00
61384;BME280;63511;49.346;8.798;2023-11-19T03:29:15;99981.94;;;12.53;100.00
61384;BME280;63511;49.346;8.798;2023-11-19T03:31:41;99969.31;;;12.54;100.00
61384;BME280;63511;49.346;8.798;2023-11-19T03:34:08;99971.25;;;12.58;100.00
61384;BME280;63511;49.346;8.798;2023-11-19T03:36:36;99974.94;;;12.65;100.00
61384;BME280;63511;49.346;8.798;2023-11-19T03:39:02;99965.13;;;12.55;100.00
61384;BME280;63511;49.346;8.798;2023-11-19T03:41:29;99982.97;;;12.72;100.00
61384;BME280;63511;49.346;8.798;2023-11-19T03:43:55;99973.94;;;12.61;100.00
61384;BME280;63511;49.346;8.798;2023-11-19T03:46:22;99965.56;;;12.62;100.00
61384;BME280;63511;49.346;8.798;2023-11-19T03:48:48;99974.66;;;12.75;100.00
61384;BME280;63511;49.346;8.798;2023-11-19T03:51:15;99961.03;;;12.73;100.00
61384;BME280;63511;49.346;8.798;2023-11-19T03:53:44;99960.81;;;12.85;100.00
61384;BME280;63511;49.346;8.798;2023-11-19T03:56:10;99961.66;;;12.85;100.00
61384;BME280;63511;49.346;8.798;2023-11-19T03:58:37;99959.41;;;12.90;100.00
61384;BME280;63511;49.346;8.798;2023-11-19T04:01:04;99951.06;;;12.76;100.00
61384;BME280;63511;49.346;8.798;2023-11-19T04:03:30;99972.22;;;12.93;100.00
61384;BME280;63511;49.346;8.798;2023-11-19T04:05:57;99955.56;;;12.82;100.00
61384;BME280;63511;49.346;8.798;2023-11-19T04:08:24;99961.09;;;12.91;100.00
61384;BME280;63511;49.346;8.798;2023-11-19T04:10:52;99960.81;;;12.85;100.00
61384;BME280;63511;49.346;8.798;2023-11-19T04:13:18;99956.91;;;12.91;100.00
61384;BME280;63511;49.346;8.798;2023-11-19T04:15:45;99962.31;;;12.97;100.00
61384;BME280;63511;49.346;8.798;2023-11-19T04:18:12;99949.81;;;12.84;100.00
61384;BME280;63511;49.346;8.798;2023-11-19T04:20:38;99962.84;;;12.92;100.00
61384;BME280;63511;49.346;8.798;2023-11-19T04:23:04;99944.09;;;12.88;100.00
61384;BME280;63511;49.346;8.798;2023-11-19T04:25:31;99948.16;;;12.85;100.00
61384;BME280;63511;49.346;8.798;2023-11-19T04:27:59;99955.72;;;13.01;100.00
61384;BME280;63511;49.346;8.798;2023-11-19T04:30:27;99960.59;;;13.12;100.00
61384;BME280;63511;49.346;8.798;2023-11-19T04:32:53;99955.97;;;13.05;100.00
61384;BME280;63511;49.346;8.798;2023-11-19T04:35:20;99953.50;;;13.07;100.00
61384;BME280;63511;49.346;8.798;2023-11-19T04:37:46;99958.75;;;13.10;100.00
61384;BME280;63511;49.346;8.798;2023-11-19T04:40:13;99973.81;;;13.23;100.00
61384;BME280;63511;49.346;8.798;2023-11-19T04:42:39;99960.41;;;13.09;100.00
61384;BME280;63511;49.346;8.798;2023-11-19T04:45:09;99958.38;;;13.18;100.00
61384;BME280;63511;49.346;8.798;2023-11-19T04:47:35;99966.13;;;13.22;100.00
61384;BME280;63511;49.346;8.798;2023-11-19T04:50:01;99967.81;;;13.21;100.00
61384;BME280;63511;49.346;8.798;2023-11-19T04:52:28;99957.91;;;13.26;100.00
61384;BME280;63511;49.346;8.798;2023-11-19T04:54:54;99954.16;;;13.19;100.00
61384;BME280;63511;49.346;8.798;2023-11-19T04:57:21;99954.31;;;13.22;100.00
61384;BME280;63511;49.346;8.798;2023-11-19T04:59:47;99960.78;;;13.33;100.00
61384;BME280;63511;49.346;8.798;2023-11-19T05:02:15;99932.34;;;13.06;100.00
61384;BME280;63511;49.346;8.798;2023-11-19T05:04:42;99937.09;;;13.33;100.00
61384;BME280;63511;49.346;8.798;2023-11-19T05:07:09;99944.22;;;13.40;100.00
61384;BME280;63511;49.346;8.798;2023-11-19T05:09:35;99940.53;;;13.17;100.00
61384;BME280;63511;49.346;8.798;2023-11-19T05:12:02;99948.44;;;13.23;100.00
61384;BME280;63511;49.346;8.798;2023-11-19T05:14:28;99961.44;;;13.29;100.00
61384;BME280;63511;49.346;8.798;2023-11-19T05:16:55;99963.63;;;13.39;100.00
61384;BME280;63511;49.346;8.798;2023-11-19T05:19:22;99953.56;;;13.41;100.00
61384;BME280;63511;49.346;8.798;2023-11-19T05:21:49;99940.59;;;13.35;100.00
61384;BME280;63511;49.346;8.798;2023-11-19T05:24:17;99948.56;;;13.42;100.00
61384;BME280;63511;49.346;8.798;2023-11-19T05:26:43;99941.13;;;13.45;100.00
61384;BME280;63511;49.346;8.798;2023-11-19T05:29:09;99955.31;;;13.42;100.00
61384;BME280;63511;49.346;8.798;2023-11-19T05:31:36;99938.31;;;13.23;100.00
61384;BME280;63511;49.346;8.798;2023-11-19T05:34:02;99949.75;;;13.49;100.00
61384;BME280;63511;49.346;8.798;2023-11-19T05:36:30;99951.34;;;13.47;100.00
61384;BME280;63511;49.346;8.798;2023-11-19T05:38:57;99943.13;;;13.52;100.00
61384;BME280;63511;49.346;8.798;2023-11-19T05:41:23;99951.06;;;13.58;100.00
61384;BME280;63511;49.346;8.798;2023-11-19T05:43:49;99952.66;;;13.56;100.00
61384;BME280;63511;49.346;8.798;2023-11-19T05:46:16;99938.00;;;13.51;100.00
61384;BME280;63511;49.346;8.798;2023-11-19T05:48:43;99937.50;;;13.58;100.00
61384;BME280;63511;49.346;8.798;2023-11-19T05:51:11;99933.25;;;13.57;100.00
61384;BME280;63511;49.346;8.798;2023-11-19T05:53:40;99937.75;;;13.63;100.00
61384;BME280;63511;49.346;8.798;2023-11-19T05:56:06;99942.31;;;13.70;100.00
61384;BME280;63511;49.346;8.798;2023-11-19T05:58:34;99930.94;;;13.61;100.00
61384;BME280;63511;49.346;8.798;2023-11-19T06:01:01;99935.47;;;13.69;100.00
61384;BME280;63511;49.346;8.798;2023-11-19T06:03:28;99934.69;;;13.70;100.00
61384;BME280;63511;49.346;8.798;2023-11-19T06:05:54;99939.50;;;13.81;100.00
61384;BME280;63511;49.346;8.798;2023-11-19T06:08:21;99934.63;;;13.86;100.00
61384;BME280;63511;49.346;8.798;2023-11-19T06:10:49;99922.97;;;13.72;100.00
61384;BME280;63511;49.346;8.798;2023-11-19T06:13:16;99924.63;;;13.71;100.00
61384;BME280;63511;49.346;8.798;2023-11-19T06:15:42;99916.28;;;13.74;100.00
61384;BME280;63511;49.346;8.798;2023-11-19T06:18:09;99931.78;;;13.80;100.00
61384;BME280;63511;49.346;8.798;2023-11-19T06:20:36;99921.22;;;13.88;100.00
61384;BME280;63511;49.346;8.798;2023-11-19T06:23:03;99928.09;;;13.91;100.00
61384;BME280;63511;49.346;8.798;2023-11-19T06:25:29;99924.38;;;13.84;100.00
61384;BME280;63511;49.346;8.798;2023-11-19T06:27:57;99939.03;;;13.90;100.00
61384;BME280;63511;49.346;8.798;2023-11-19T06:30:24;99932.00;;;13.84;100.00
61384;BME280;63511;49.346;8.798;2023-11-19T06:32:50;99957.09;;;13.96;100.00
61384;BME280;63511;49.346;8.798;2023-11-19T06:35:17;99943.19;;;13.88;100.00
61384;BME280;63511;49.346;8.798;2023-11-19T06:37:43;99949.50;;;13.96;100.00
61384;BME280;63511;49.346;8.798;2023-11-19T06:40:10;99945.66;;;14.04;100.00
61384;BME280;63511;49.346;8.798;2023-11-19T06:42:37;99935.50;;;14.04;100.00
61384;BME280;63511;49.346;8.798;2023-11-19T06:45:05;99946.63;;;14.25;100.00
61384;BME280;63511;49.346;8.798;2023-11-19T06:47:32;99961.38;;;14.32;100.00
61384;BME280;63511;49.346;8.798;2023-11-19T06:49:58;99958.63;;;14.28;100.00
61384;BME280;63511;49.346;8.798;2023-11-19T06:52:25;99945.28;;;14.14;100.00
61384;BME280;63511;49.346;8.798;2023-11-19T06:54:51;99968.13;;;14.32;100.00
61384;BME280;63511;49.346;8.798;2023-11-19T06:57:18;99949.53;;;14.15;100.00
61384;BME280;63511;49.346;8.798;2023-11-19T06:59:45;99940.94;;;14.12;100.00
61384;BME280;63511;49.346;8.798;2023-11-19T07:02:13;99950.63;;;14.20;100.00
61384;BME280;63511;49.346;8.798;2023-11-19T07:04:40;99972.84;;;14.24;100.00
61384;BME280;63511;49.346;8.798;2023-11-19T07:07:06;99973.00;;;14.27;100.00
61384;BME280;63511;49.346;8.798;2023-11-19T07:09:32;99977.59;;;14.36;100.00
61384;BME280;63511;49.346;8.798;2023-11-19T07:11:59;99955.78;;;14.22;100.00
61384;BME280;63511;49.346;8.798;2023-11-19T07:14:26;99975.47;;;14.43;100.00
61384;BME280;63511;49.346;8.798;2023-11-19T07:16:53;99985.13;;;14.51;100.00
61384;BME280;63511;49.346;8.798;2023-11-19T07:19:22;99980.09;;;14.52;100.00
61384;BME280;63511;49.346;8.798;2023-11-19T07:21:48;99978.19;;;14.30;100.00
61384;BME280;63511;49.346;8.798;2023-11-19T07:24:15;99988.16;;;14.43;100.00
61384;BME280;63511;49.346;8.798;2023-11-19T07:26:42;99987.13;;;14.77;100.00
61384;BME280;63511;49.346;8.798;2023-11-19T07:29:09;99967.97;;;14.46;100.00
61384;BME280;63511;49.346;8.798;2023-11-19T07:31:36;99986.81;;;14.69;100.00
61384;BME280;63511;49.346;8.798;2023-11-19T07:34:02;99985.53;;;14.60;100.00
61384;BME280;63511;49.346;8.798;2023-11-19T07:36:30;99978.97;;;14.65;100.00
61384;BME280;63511;49.346;8.798;2023-11-19T07:38:57;99989.59;;;14.56;100.00
61384;BME280;63511;49.346;8.798;2023-11-19T07:41:23;100001.50;;;14.57;100.00
61384;BME280;63511;49.346;8.798;2023-11-19T07:43:50;99991.59;;;14.44;100.00
61384;BME280;63511;49.346;8.798;2023-11-19T07:46:17;100008.53;;;14.63;100.00
61384;BME280;63511;49.346;8.798;2023-11-19T07:48:44;100001.00;;;14.46;100.00
61384;BME280;63511;49.346;8.798;2023-11-19T07:51:12;100010.47;;;14.68;100.00
61384;BME280;63511;49.346;8.798;2023-11-19T07:53:40;99986.34;;;14.41;100.00
61384;BME280;63511;49.346;8.798;2023-11-19T07:56:07;99983.44;;;14.33;100.00
61384;BME280;63511;49.346;8.798;2023-11-19T07:58:33;99999.81;;;14.58;100.00
61384;BME280;63511;49.346;8.798;2023-11-19T08:01:00;99990.31;;;14.36;100.00
61384;BME280;63511;49.346;8.798;2023-11-19T08:03:27;99985.47;;;14.23;100.00
61384;BME280;63511;49.346;8.798;2023-11-19T08:05:55;100010.19;;;14.62;100.00
61384;BME280;63511;49.346;8.798;2023-11-19T08:08:21;99992.25;;;14.40;100.00
61384;BME280;63511;49.346;8.798;2023-11-19T08:10:49;99986.91;;;14.35;100.00
61384;BME280;63511;49.346;8.798;2023-11-19T08:13:16;100000.38;;;14.51;100.00
61384;BME280;63511;49.346;8.798;2023-11-19T08:15:43;99988.59;;;14.35;100.00
61384;BME280;63511;49.346;8.798;2023-11-19T08:18:10;99986.22;;;14.38;100.00
61384;BME280;63511;49.346;8.798;2023-11-19T08:20:36;99982.94;;;14.23;100.00
61384;BME280;63511;49.346;8.798;2023-11-19T08:23:02;99999.00;;;14.39;100.00
61384;BME280;63511;49.346;8.798;2023-11-19T08:25:30;100017.63;;;14.58;100.00
61384;BME280;63511;49.346;8.798;2023-11-19T08:28:00;100018.41;;;14.57;100.00
61384;BME280;63511;49.346;8.798;2023-11-19T08:30:26;100012.50;;;14.38;100.00
61384;BME280;63511;49.346;8.798;2023-11-19T08:32:53;100019.75;;;14.49;100.00
61384;BME280;63511;49.346;8.798;2023-11-19T08:35:19;100023.69;;;14.61;100.00
61384;BME280;63511;49.346;8.798;2023-11-19T08:37:45;100007.16;;;14.52;100.00
61384;BME280;63511;49.346;8.798;2023-11-19T08:40:12;100007.38;;;14.56;100.00
61384;BME280;63511;49.346;8.798;2023-11-19T08:42:39;100020.44;;;14.64;100.00
61384;BME280;63511;49.346;8.798;2023-11-19T08:45:08;100022.53;;;14.72;100.00
61384;BME280;63511;49.346;8.798;2023-11-19T08:47:35;100015.50;;;14.67;100.00
61384;BME280;63511;49.346;8.798;2023-11-19T08:50:02;100018.69;;;14.63;100.00
61384;BME280;63511;49.346;8.798;2023-11-19T08:52:29;100038.06;;;14.78;100.00
61384;BME280;63511;49.346;8.798;2023-11-19T08:54:55;100027.97;;;14.80;100.00
61384;BME280;63511;49.346;8.798;2023-11-19T08:57:22;100036.56;;;15.01;100.00
61384;BME280;63511;49.346;8.798;2023-11-19T08:59:48;100022.41;;;14.88;100.00
61384;BME280;63511;49.346;8.798;2023-11-19T09:05:08;100038.16;;;15.18;100.00
61384;BME280;63511;49.346;8.798;2023-11-19T09:07:34;100037.31;;;15.18;100.00
61384;BME280;63511;49.346;8.798;2023-11-19T09:10:00;100050.53;;;15.49;100.00
61384;BME280;63511;49.346;8.798;2023-11-19T09:12:27;100040.09;;;15.43;100.00
61384;BME280;63511;49.346;8.798;2023-11-19T09:14:53;100036.63;;;15.41;100.00
61384;BME280;63511;49.346;8.798;2023-11-19T09:17:20;100046.06;;;15.44;100.00
61384;BME280;63511;49.346;8.798;2023-11-19T09:19:46;100053.78;;;15.64;100.00
61384;BME280;63511;49.346;8.798;2023-11-19T09:22:14;100032.22;;;15.37;100.00
61384;BME280;63511;49.346;8.798;2023-11-19T09:24:41;100043.38;;;15.41;100.00
61384;BME280;63511;49.346;8.798;2023-11-19T09:27:09;100048.06;;;15.51;100.00
61384;BME280;63511;49.346;8.798;2023-11-19T09:29:35;100038.47;;;15.45;100.00
61384;BME280;63511;49.346;8.798;2023-11-19T09:32:02;100050.81;;;15.55;100.00
61384;BME280;63511;49.346;8.798;2023-11-19T09:34:28;100050.91;;;15.57;100.00
61384;BME280;63511;49.346;8.798;2023-11-19T09:36:55;100040.59;;;15.54;100.00
61384;BME280;63511;49.346;8.798;2023-11-19T09:39:23;100045.03;;;15.79;100.00
61384;BME280;63511;49.346;8.798;2023-11-19T09:41:50;100039.06;;;15.78;100.00
61384;BME280;63511;49.346;8.798;2023-11-19T09:44:17;100030.22;;;15.70;100.00
61384;BME280;63511;49.346;8.798;2023-11-19T09:46:44;100021.53;;;15.46;100.00
61384;BME280;63511;49.346;8.798;2023-11-19T09:49:11;100036.00;;;15.66;100.00
61384;BME280;63511;49.346;8.798;2023-11-19T09:51:38;100047.22;;;15.90;100.00
61384;BME280;63511;49.346;8.798;2023-11-19T09:54:04;100034.34;;;15.87;100.00
61384;BME280;63511;49.346;8.798;2023-11-19T09:56:33;100022.31;;;15.83;100.00
61384;BME280;63511;49.346;8.798;2023-11-19T09:59:02;100044.25;;;16.00;100.00
61384;BME280;63511;49.346;8.798;2023-11-19T10:01:28;100025.16;;;15.91;100.00
61384;BME280;63511;49.346;8.798;2023-11-19T10:03:57;100032.44;;;16.02;100.00
61384;BME280;63511;49.346;8.798;2023-11-19T10:06:23;100029.69;;;15.98;100.00
61384;BME280;63511;49.346;8.798;2023-11-19T10:08:51;100025.22;;;15.92;100.00
61384;BME280;63511;49.346;8.798;2023-11-19T10:11:18;100019.94;;;15.88;100.00
61384;BME280;63511;49.346;8.798;2023-11-19T10:13:46;100014.94;;;15.89;100.00
61384;BME280;63511;49.346;8.798;2023-11-19T10:16:13;100020.72;;;15.85;100.00
61384;BME280;63511;49.346;8.798;2023-11-19T10:18:42;100014.84;;;15.88;100.00
61384;BME280;63511;49.346;8.798;2023-11-19T10:21:08;100025.25;;;16.35;100.00
61384;BME280;63511;49.346;8.798;2023-11-19T10:23:47;100035.88;;;16.46;100.00
61384;BME280;63511;49.346;8.798;2023-11-19T10:26:13;100015.88;;;16.34;100.00
61384;BME280;63511;49.346;8.798;2023-11-19T10:28:40;100015.25;;;16.40;100.00
61384;BME280;63511;49.346;8.798;2023-11-19T10:31:10;100015.81;;;16.55;99.49
61384;BME280;63511;49.346;8.798;2023-11-19T10:33:38;100020.63;;;16.68;98.49
61384;BME280;63511;49.346;8.798;2023-11-19T10:36:04;100016.03;;;16.60;97.50
61384;BME280;63511;49.346;8.798;2023-11-19T10:38:31;100003.41;;;16.63;96.88
61384;BME280;63511;49.346;8.798;2023-11-19T10:40:57;99987.25;;;16.62;95.13
61384;BME280;63511;49.346;8.798;2023-11-19T10:43:24;99995.06;;;16.67;93.19
61384;BME280;63511;49.346;8.798;2023-11-19T10:45:51;100013.88;;;16.92;94.46
61384;BME280;63511;49.346;8.798;2023-11-19T10:48:18;99981.34;;;16.87;94.30
61384;BME280;63511;49.346;8.798;2023-11-19T10:50:46;99970.66;;;16.73;93.61
61384;BME280;63511;49.346;8.798;2023-11-19T10:53:15;99991.00;;;16.95;92.90
61384;BME280;63511;49.346;8.798;2023-11-19T10:55:44;99971.50;;;16.74;92.20
61384;BME280;63511;49.346;8.798;2023-11-19T10:58:13;99985.81;;;16.92;92.79
61384;BME280;63511;49.346;8.798;2023-11-19T11:00:43;99984.53;;;17.04;91.96
61384;BME280;63511;49.346;8.798;2023-11-19T11:03:11;99985.81;;;17.16;90.22
61384;BME280;63511;49.346;8.798;2023-11-19T11:05:39;99978.44;;;17.24;90.96
61384;BME280;63511;49.346;8.798;2023-11-19T11:08:06;99968.09;;;17.21;91.31
61384;BME280;63511;49.346;8.798;2023-11-19T11:10:35;99974.56;;;17.11;89.64
61384;BME280;63511;49.346;8.798;2023-11-19T11:13:05;99962.69;;;17.12;89.78
61384;BME280;63511;49.346;8.798;2023-11-19T11:15:31;99974.22;;;17.26;89.79
61384;BME280;63511;49.346;8.798;2023-11-19T11:17:59;99967.03;;;17.14;90.73
61384;BME280;63511;49.346;8.798;2023-11-19T11:20:26;99966.97;;;17.13;90.61
61384;BME280;63511;49.346;8.798;2023-11-19T11:22:57;99962.06;;;16.95;91.23
61384;BME280;63511;49.346;8.798;2023-11-19T11:25:33;99937.94;;;16.85;90.49
61384;BME280;63511;49.346;8.798;2023-11-19T11:28:05;99946.88;;;16.74;91.61
61384;BME280;63511;49.346;8.798;2023-11-19T11:30:40;99958.25;;;16.82;90.71
61384;BME280;63511;49.346;8.798;2023-11-19T11:33:16;99945.75;;;16.66;92.24
61384;BME280;63511;49.346;8.798;2023-11-19T11:35:49;99950.47;;;16.79;89.74
61384;BME280;63511;49.346;8.798;2023-11-19T11:38:22;99953.00;;;16.79;89.30
61384;BME280;63511;49.346;8.798;2023-11-19T11:43:44;99953.94;;;17.29;86.25
61384;BME280;63511;49.346;8.798;2023-11-19T11:48:52;99931.91;;;17.83;79.88
61384;BME280;63511;49.346;8.798;2023-11-19T11:51:18;99944.94;;;18.19;78.83
61384;BME280;63511;49.346;8.798;2023-11-19T11:54:06;99934.13;;;17.99;78.44
61384;BME280;63511;49.346;8.798;2023-11-19T11:56:36;99919.78;;;17.76;79.89
61384;BME280;63511;49.346;8.798;2023-11-19T11:59:03;99904.69;;;17.58;76.54
61384;BME280;63511;49.346;8.798;2023-11-19T12:01:29;99912.84;;;17.72;77.95
61384;BME280;63511;49.346;8.798;2023-11-19T12:03:56;99900.84;;;17.44;76.90
61384;BME280;63511;49.346;8.798;2023-11-19T12:06:22;99918.19;;;17.79;74.92
61384;BME280;63511;49.346;8.798;2023-11-19T12:08:49;99930.63;;;17.96;72.82
61384;BME280;63511;49.346;8.798;2023-11-19T12:11:17;99912.06;;;17.74;74.26
61384;BME280;63511;49.346;8.798;2023-11-19T12:16:29;99920.94;;;17.86;74.35
61384;BME280;63511;49.346;8.798;2023-11-19T12:19:02;99921.41;;;17.74;75.52
61384;BME280;63511;49.346;8.798;2023-11-19T12:21:29;99908.44;;;17.42;74.80
61384;BME280;63511;49.346;8.798;2023-11-19T12:23:57;99936.25;;;17.86;73.03
61384;BME280;63511;49.346;8.798;2023-11-19T12:26:34;99911.25;;;17.50;73.98
61384;BME280;63511;49.346;8.798;2023-11-19T12:29:02;99903.38;;;17.44;75.94
61384;BME280;63511;49.346;8.798;2023-11-19T12:31:31;99904.00;;;17.37;74.66
61384;BME280;63511;49.346;8.798;2023-11-19T12:34:01;99904.28;;;17.46;74.88
61384;BME280;63511;49.346;8.798;2023-11-19T12:36:27;99912.53;;;17.37;74.24
61384;BME280;63511;49.346;8.798;2023-11-19T12:38:53;99906.59;;;17.38;75.00
61384;BME280;63511;49.346;8.798;2023-11-19T12:41:20;99913.88;;;17.53;74.68
61384;BME280;63511;49.346;8.798;2023-11-19T12:43:49;99897.69;;;17.51;75.85
61384;BME280;63511;49.346;8.798;2023-11-19T12:46:18;99907.53;;;17.66;74.90
61384;BME280;63511;49.346;8.798;2023-11-19T12:48:45;99896.53;;;17.68;74.66
61384;BME280;63511;49.346;8.798;2023-11-19T12:51:11;99881.56;;;17.54;74.52
61384;BME280;63511;49.346;8.798;2023-11-19T12:53:46;99867.34;;;17.35;75.62
61384;BME280;63511;49.346;8.798;2023-11-19T12:56:13;99875.81;;;17.34;76.17
61384;BME280;63511;49.346;8.798;2023-11-19T12:58:43;99870.00;;;17.38;76.04